createdAt,value
2019-05-12T00:01:59.575Z,27.85
2019-05-12T00:04:31.683Z,27.73
2019-05-12T00:07:03.956Z,28.37
2019-05-12T00:09:38.660Z,27.93
2019-05-12T00:12:09.874Z,26.17
2019-05-12T00:14:41.997Z,28.55
2019-05-12T00:17:14.183Z,27.05
2019-05-12T00:19:47.945Z,25.77
2019-05-12T00:22:21.732Z,25.30
2019-05-12T00:24:53.951Z,27.07
2019-05-12T00:27:28.331Z,27.15
2019-05-12T00:30:00.081Z,26.50
2019-05-12T00:32:32.341Z,23.05
2019-05-12T00:35:07.292Z,23.75
2019-05-12T00:37:39.062Z,23.13
2019-05-12T00:40:11.262Z,23.15
2019-05-12T00:42:43.497Z,24.20
2019-05-12T00:45:15.637Z,23.52
2019-05-12T00:47:48.106Z,23.35
2019-05-12T00:50:21.450Z,23.55
2019-05-12T00:52:53.935Z,23.15
2019-05-12T00:55:29.168Z,23.62
2019-05-12T00:58:01.362Z,24.50
2019-05-12T01:00:33.585Z,23.52
2019-05-12T01:03:08.406Z,24.10
2019-05-12T01:05:39.363Z,23.73
2019-05-12T01:08:11.531Z,24.90
2019-05-12T01:10:43.607Z,26.60
2019-05-12T01:13:18.405Z,25.88
2019-05-12T01:15:49.577Z,25.77
2019-05-12T01:18:21.840Z,25.50
2019-05-12T01:20:54.095Z,24.75
2019-05-12T01:23:28.105Z,23.70
2019-05-12T01:25:59.940Z,24.25
2019-05-12T01:28:32.399Z,24.63
2019-05-12T01:31:08.441Z,24.45
2019-05-12T01:33:39.676Z,23.62
2019-05-12T01:36:11.932Z,22.95
2019-05-12T01:38:44.549Z,23.53
2019-05-12T01:41:20.523Z,24.85
2019-05-12T01:43:52.868Z,22.65
2019-05-12T01:46:25.452Z,24.52
2019-05-12T01:48:59.128Z,23.98
2019-05-12T01:51:31.473Z,22.75
2019-05-12T01:54:11.775Z,22.67
2019-05-12T01:56:38.440Z,22.67
2019-05-12T01:59:10.671Z,22.07
2019-05-12T02:01:42.899Z,20.52
2019-05-12T02:04:15.083Z,20.35
2019-05-12T02:06:48.553Z,21.87
2019-05-12T02:09:22.228Z,21.15
2019-05-12T02:11:54.703Z,21.93
2019-05-12T02:14:27.620Z,22.70
2019-05-12T02:16:59.827Z,20.57
2019-05-12T02:19:32.534Z,18.63
2019-05-12T02:22:04.866Z,17.82
2019-05-12T02:24:39.062Z,18.03
2019-05-12T02:27:10.871Z,18.50
2019-05-12T02:29:43.298Z,18.95
2019-05-12T02:32:15.332Z,19.70
2019-05-12T02:34:47.560Z,18.30
2019-05-12T02:37:19.684Z,19.00
2019-05-12T02:39:55.635Z,17.85
2019-05-12T02:42:26.595Z,17.12
2019-05-12T02:44:59.325Z,16.47
2019-05-12T02:47:34.459Z,15.60
2019-05-12T02:50:06.735Z,14.98
2019-05-12T02:52:39.304Z,15.25
2019-05-12T02:55:14.759Z,16.40
2019-05-12T02:57:45.493Z,16.20
2019-05-12T03:00:17.653Z,15.75
2019-05-12T03:02:49.921Z,15.93
2019-05-12T03:05:24.696Z,16.20
2019-05-12T03:07:55.734Z,15.80
2019-05-12T03:10:27.950Z,15.83
2019-05-12T03:13:00.180Z,15.80
2019-05-12T03:15:35.859Z,15.08
2019-05-12T03:18:06.888Z,15.58
2019-05-12T03:20:39.374Z,16.32
2019-05-12T03:23:11.693Z,16.03
2019-05-12T03:25:45.592Z,16.50
2019-05-12T03:28:17.562Z,16.70
2019-05-12T03:30:49.713Z,17.07
2019-05-12T03:33:33.116Z,17.13
2019-05-12T03:36:00.752Z,15.63
2019-05-12T03:38:29.141Z,16.00
2019-05-12T03:41:01.381Z,15.75
2019-05-12T03:43:35.111Z,16.30
2019-05-12T03:46:07.223Z,17.35
2019-05-12T03:48:39.871Z,17.03
2019-05-12T03:51:15.215Z,16.52
2019-05-12T03:53:45.739Z,15.48
2019-05-12T03:56:18.207Z,15.85
2019-05-12T03:58:50.358Z,15.72
2019-05-12T04:01:25.318Z,15.32
2019-05-12T04:03:56.131Z,16.07
2019-05-12T04:06:28.499Z,15.72
2019-05-12T04:09:00.638Z,14.13
2019-05-12T04:11:35.704Z,14.50
2019-05-12T04:14:07.167Z,14.55
2019-05-12T04:16:40.294Z,14.70
2019-05-12T04:19:14.681Z,14.10
2019-05-12T04:21:46.147Z,14.30
2019-05-12T04:24:18.476Z,15.23
2019-05-12T04:26:51.093Z,15.67
2019-05-12T04:29:25.017Z,18.93
2019-05-12T04:31:57.287Z,18.83
2019-05-12T04:34:29.576Z,18.20
2019-05-12T04:37:04.345Z,18.02
2019-05-12T04:39:35.890Z,17.35
2019-05-12T04:42:08.178Z,16.95
2019-05-12T04:44:44.850Z,17.48
2019-05-12T04:47:16.345Z,16.55
2019-05-12T04:49:48.578Z,16.37
2019-05-12T04:52:20.831Z,19.17
2019-05-12T04:54:55.262Z,19.00
2019-05-12T04:57:26.678Z,16.90
2019-05-12T04:59:58.918Z,18.37
2019-05-12T05:02:31.172Z,17.98
2019-05-12T05:05:05.406Z,18.10
2019-05-12T05:07:36.966Z,18.07
2019-05-12T05:10:09.285Z,18.30
2019-05-12T05:12:41.534Z,19.40
2019-05-12T05:15:14.619Z,18.83
2019-05-12T05:17:47.207Z,16.48
2019-05-12T05:20:19.314Z,19.12
2019-05-12T05:22:51.486Z,18.20
2019-05-12T05:25:23.807Z,17.62
2019-05-12T05:27:56.209Z,19.12
2019-05-12T05:30:28.430Z,19.20
2019-05-12T05:33:04.071Z,18.52
2019-05-12T05:35:39.412Z,17.45
2019-05-12T05:38:10.818Z,17.50
2019-05-12T05:40:43.397Z,16.60
2019-05-12T05:43:18.422Z,16.87
2019-05-12T05:45:56.117Z,17.85
2019-05-12T05:48:26.626Z,17.77
2019-05-12T05:50:59.938Z,18.77
2019-05-12T05:53:33.546Z,19.23
2019-05-12T05:56:05.851Z,20.00
2019-05-12T05:58:40.261Z,20.23
2019-05-12T06:01:14.294Z,19.73
2019-05-12T06:03:46.463Z,19.55
2019-05-12T06:06:18.733Z,20.10
2019-05-12T06:08:54.537Z,18.90
2019-05-12T06:11:28.333Z,17.60
2019-05-12T06:14:03.278Z,17.10
2019-05-12T06:16:34.917Z,17.55
2019-05-12T06:19:07.155Z,16.93
2019-05-12T06:21:39.272Z,17.62
2019-05-12T06:24:15.539Z,16.93
2019-05-12T06:26:56.511Z,17.45
2019-05-12T06:29:20.818Z,17.95
2019-05-12T06:31:54.245Z,17.70
2019-05-12T06:34:26.187Z,18.45
2019-05-12T06:37:05.105Z,17.55
2019-05-12T06:39:34.225Z,18.60
2019-05-12T06:42:12.404Z,19.98
2019-05-12T06:44:39.109Z,18.35
2019-05-12T06:47:11.278Z,19.32
2019-05-12T06:49:44.026Z,18.62
2019-05-12T06:52:16.402Z,18.77
2019-05-12T06:54:51.436Z,17.95
2019-05-12T06:57:26.327Z,16.82
2019-05-12T06:59:55.967Z,17.15
2019-05-12T07:02:30.192Z,16.53
2019-05-12T07:05:04.133Z,16.90
2019-05-12T07:07:41.918Z,16.77
2019-05-12T07:10:13.067Z,17.10
2019-05-12T07:12:57.669Z,14.90
2019-05-12T07:15:17.415Z,16.17
2019-05-12T07:17:50.842Z,15.48
2019-05-12T07:20:29.009Z,16.30
2019-05-12T07:22:57.859Z,18.07
2019-05-12T07:25:33.563Z,17.47
2019-05-12T07:28:07.917Z,26.90
2019-05-12T07:30:38.359Z,20.90
2019-05-12T07:33:10.622Z,19.92
2019-05-12T07:35:44.445Z,17.37
2019-05-12T07:38:21.438Z,18.40
2019-05-12T07:40:50.673Z,23.65
2019-05-12T07:43:24.270Z,18.45
2019-05-12T07:46:02.307Z,16.10
2019-05-12T07:48:30.174Z,18.10
2019-05-12T07:51:04.024Z,17.70
2019-05-12T07:53:35.776Z,20.32
2019-05-12T07:56:08.307Z,17.15
2019-05-12T07:58:40.934Z,18.63
2019-05-12T08:01:14.568Z,18.37
2019-05-12T08:03:50.895Z,16.60
2019-05-12T08:06:20.753Z,17.73
2019-05-12T08:08:56.578Z,17.35
2019-05-12T08:11:28.701Z,16.62
2019-05-12T08:13:59.898Z,18.77
2019-05-12T08:16:36.210Z,15.13
2019-05-12T08:19:08.308Z,16.52
2019-05-12T08:21:43.690Z,16.90
2019-05-12T08:24:14.264Z,17.70
2019-05-12T08:26:49.605Z,19.80
2019-05-12T08:29:23.717Z,16.70
2019-05-12T08:31:54.886Z,17.48
2019-05-12T08:34:27.272Z,22.27
2019-05-12T08:36:59.543Z,16.97
2019-05-12T08:39:33.585Z,16.62
2019-05-12T08:42:06.181Z,15.80
2019-05-12T08:44:40.566Z,15.30
2019-05-12T08:47:12.780Z,15.40
2019-05-12T08:49:53.434Z,16.30
2019-05-12T08:52:18.884Z,16.67
2019-05-12T08:54:53.494Z,17.07
2019-05-12T08:57:24.586Z,17.20
2019-05-12T09:00:02.740Z,17.70
2019-05-12T09:02:30.486Z,17.98
2019-05-12T09:05:04.687Z,17.90
2019-05-12T09:07:39.803Z,20.08
2019-05-12T09:10:10.122Z,18.20
2019-05-12T09:12:43.995Z,17.85
2019-05-12T09:15:15.905Z,16.57
2019-05-12T09:17:52.543Z,17.77
2019-05-12T09:20:22.336Z,18.45
2019-05-12T09:23:00.709Z,18.95
2019-05-12T09:25:28.569Z,19.17
2019-05-12T09:28:01.619Z,18.93
2019-05-12T09:30:34.363Z,19.20
2019-05-12T09:33:06.644Z,18.92
2019-05-12T09:35:39.738Z,19.53
2019-05-12T09:38:21.168Z,30.12
2019-05-12T09:40:46.500Z,26.48
2019-05-12T09:43:18.773Z,34.05
2019-05-12T09:45:53.965Z,19.12
2019-05-12T09:48:24.683Z,26.60
2019-05-12T09:51:00.604Z,46.80
2019-05-12T09:53:30.437Z,22.73
2019-05-12T09:56:04.362Z,19.17
2019-05-12T09:58:36.201Z,22.27
2019-05-12T10:01:08.520Z,23.40
2019-05-12T10:03:40.887Z,21.15
2019-05-12T10:06:17.996Z,27.67
2019-05-12T10:08:46.749Z,24.70
2019-05-12T10:11:20.795Z,29.10
2019-05-12T10:13:54.363Z,28.10
2019-05-12T10:16:25.962Z,22.77
2019-05-12T10:18:58.353Z,26.37
2019-05-12T10:21:30.676Z,29.93
2019-05-12T10:24:05.022Z,22.10
2019-05-12T10:26:41.262Z,21.55
2019-05-12T10:29:17.459Z,21.42
2019-05-12T10:31:44.526Z,20.82
2019-05-12T10:34:18.361Z,21.47
2019-05-12T10:36:53.729Z,19.37
2019-05-12T10:39:25.855Z,18.25
2019-05-12T10:41:58.067Z,23.57
2019-05-12T10:44:36.187Z,20.23
2019-05-12T10:47:05.041Z,17.42
2019-05-12T10:49:37.329Z,18.62
2019-05-12T10:52:09.534Z,24.13
2019-05-12T10:54:43.470Z,24.18
2019-05-12T10:57:15.421Z,33.35
2019-05-12T10:59:48.556Z,18.25
2019-05-12T11:02:26.610Z,34.03
2019-05-12T11:04:54.934Z,22.45
2019-05-12T11:07:28.196Z,22.05
2019-05-12T11:10:03.560Z,22.77
2019-05-12T11:12:35.321Z,35.38
2019-05-12T11:15:09.375Z,28.90
2019-05-12T11:17:46.023Z,33.50
2019-05-12T11:20:16.848Z,28.30
2019-05-12T11:22:49.136Z,22.23
2019-05-12T11:25:21.303Z,23.73
2019-05-12T11:27:54.956Z,23.02
2019-05-12T11:30:27.351Z,23.45
2019-05-12T11:32:59.895Z,23.15
2019-05-12T11:35:32.574Z,24.30
2019-05-12T11:38:04.858Z,43.50
2019-05-12T11:40:37.196Z,25.05
2019-05-12T11:43:09.231Z,39.75
2019-05-12T11:45:41.484Z,19.35
2019-05-12T11:48:14.398Z,18.80
2019-05-12T11:50:51.344Z,17.17
2019-05-12T11:53:30.360Z,22.87
2019-05-12T11:55:57.261Z,22.85
2019-05-12T11:58:29.627Z,18.87
2019-05-12T12:01:08.303Z,20.20
2019-05-12T12:03:39.610Z,18.02
2019-05-12T12:06:13.468Z,16.55
2019-05-12T12:08:45.498Z,16.30
2019-05-12T12:11:24.303Z,22.10
2019-05-12T12:13:53.574Z,18.15
2019-05-12T12:16:25.895Z,21.27
2019-05-12T12:19:02.587Z,20.08
2019-05-12T12:21:34.783Z,17.82
2019-05-12T12:24:05.473Z,18.92
2019-05-12T12:26:37.646Z,29.13
2019-05-12T12:29:09.920Z,22.32
2019-05-12T12:31:43.668Z,22.52
2019-05-12T12:34:23.800Z,22.55
2019-05-12T12:36:50.362Z,20.10
2019-05-12T12:39:23.787Z,19.90
2019-05-12T12:42:00.343Z,20.12
2019-05-12T12:44:29.776Z,19.05
2019-05-12T12:47:02.019Z,19.77
2019-05-12T12:49:34.148Z,22.50
2019-05-12T12:52:08.998Z,20.97
2019-05-12T12:54:43.701Z,21.87
2019-05-12T12:57:14.974Z,22.07
2019-05-12T12:59:51.443Z,21.23
2019-05-12T13:02:20.782Z,21.82
2019-05-12T13:04:53.852Z,20.62
2019-05-12T13:07:26.319Z,21.10
2019-05-12T13:10:04.626Z,21.85
2019-05-12T13:12:35.508Z,23.77
2019-05-12T13:15:06.994Z,28.12
2019-05-12T13:17:41.795Z,31.10
2019-05-12T13:20:12.915Z,28.45
2019-05-12T13:22:46.193Z,27.73
2019-05-12T13:25:18.395Z,28.57
2019-05-12T13:27:50.798Z,28.02
2019-05-12T13:30:24.378Z,36.08
2019-05-12T13:32:56.810Z,26.75
2019-05-12T13:35:28.990Z,26.35
2019-05-12T13:38:01.428Z,26.50
2019-05-12T13:40:36.146Z,26.42
2019-05-12T13:43:09.151Z,28.80
2019-05-12T13:45:41.224Z,26.02
2019-05-12T13:48:17.926Z,26.57
2019-05-12T13:50:47.040Z,24.15
2019-05-12T13:53:21.484Z,23.27
2019-05-12T13:55:54.270Z,22.80
2019-05-12T13:58:28.099Z,21.55
2019-05-12T14:01:13.235Z,21.50
2019-05-12T14:03:33.625Z,21.40
2019-05-12T14:06:05.775Z,21.57
2019-05-12T14:08:38.049Z,21.48
2019-05-12T14:11:11.335Z,22.32
2019-05-12T14:13:43.604Z,24.72
2019-05-12T14:16:15.811Z,44.53
2019-05-12T14:18:51.169Z,33.60
2019-05-12T14:21:24.294Z,28.50
2019-05-12T14:23:55.439Z,24.30
2019-05-12T14:26:27.849Z,24.53
2019-05-12T14:29:00.315Z,23.60
2019-05-12T14:31:36.287Z,24.50
2019-05-12T14:34:10.391Z,24.55
2019-05-12T14:36:43.205Z,24.45
2019-05-12T14:39:15.227Z,25.80
2019-05-12T14:41:53.315Z,24.55
2019-05-12T14:44:20.927Z,23.15
2019-05-12T14:46:53.771Z,30.08
2019-05-12T14:49:30.535Z,29.98
2019-05-12T14:52:03.200Z,26.45
2019-05-12T14:54:35.811Z,26.30
2019-05-12T14:57:08.142Z,24.92
2019-05-12T14:59:41.221Z,24.82
2019-05-12T15:02:13.708Z,24.90
2019-05-12T15:04:46.692Z,24.43
2019-05-12T15:07:18.852Z,25.57
2019-05-12T15:09:53.905Z,23.50
2019-05-12T15:22:33.117Z,24.82
2019-05-12T15:25:06.519Z,27.10
2019-05-12T15:27:44.978Z,25.80
2019-05-12T15:30:20.272Z,24.10
2019-05-12T15:32:47.016Z,22.95
2019-05-12T15:35:19.191Z,22.43
2019-05-12T15:37:52.899Z,22.93
2019-05-12T15:40:25.009Z,23.40
2019-05-12T15:43:00.380Z,22.48
2019-05-12T15:45:34.152Z,22.32
2019-05-12T15:48:05.787Z,22.25
2019-05-12T15:50:38.094Z,21.90
2019-05-12T15:53:15.965Z,32.08
2019-05-12T15:55:45.829Z,25.92
2019-05-12T15:58:18.056Z,23.85
2019-05-12T16:00:50.225Z,23.60
2019-05-12T16:03:23.604Z,21.45
2019-05-12T16:05:55.806Z,21.37
2019-05-12T16:08:28.022Z,20.97
2019-05-12T16:11:00.438Z,20.50
2019-05-12T16:13:33.839Z,23.30
2019-05-12T16:16:06.686Z,20.27
2019-05-12T16:18:40.626Z,21.43
2019-05-12T16:21:14.428Z,21.12
2019-05-12T16:23:46.187Z,18.60
2019-05-12T16:26:18.326Z,18.87
2019-05-12T16:28:53.972Z,18.50
2019-05-12T16:31:25.014Z,17.83
2019-05-12T16:34:01.040Z,19.00
2019-05-12T16:36:30.741Z,19.35
2019-05-12T16:39:03.943Z,17.42
2019-05-12T16:41:36.771Z,20.35
2019-05-12T16:44:17.327Z,17.85
2019-05-12T16:46:44.472Z,17.95
2019-05-12T16:49:16.762Z,19.77
2019-05-12T16:51:48.959Z,24.98
2019-05-12T16:54:21.250Z,18.73
2019-05-12T16:57:00.317Z,20.03
2019-05-12T16:59:30.039Z,20.32
2019-05-12T17:02:05.526Z,20.40
2019-05-12T17:04:35.734Z,23.42
2019-05-12T17:07:09.648Z,23.17
2019-05-12T17:09:43.794Z,23.75
2019-05-12T17:12:15.556Z,23.40
2019-05-12T17:14:50.088Z,23.05
2019-05-12T17:17:21.425Z,23.38
2019-05-12T17:19:53.993Z,23.60
2019-05-12T17:22:26.276Z,23.30
2019-05-12T17:24:58.824Z,25.57
2019-05-12T17:27:31.175Z,24.95
2019-05-12T17:30:04.465Z,25.30
2019-05-12T17:32:37.889Z,25.32
2019-05-12T17:35:10.294Z,24.27
2019-05-12T17:37:42.560Z,24.30
2019-05-12T17:40:18.340Z,24.85
2019-05-12T17:42:48.645Z,27.35
2019-05-12T17:45:20.763Z,26.97
2019-05-12T17:47:56.941Z,25.37
2019-05-12T17:50:26.571Z,29.72
2019-05-12T17:53:00.449Z,25.27
2019-05-12T17:55:32.267Z,29.72
2019-05-12T17:58:06.409Z,26.97
2019-05-12T18:00:41.350Z,32.83
2019-05-12T18:03:21.436Z,25.67
2019-05-12T18:05:47.982Z,23.83
2019-05-12T18:08:24.231Z,22.23
2019-05-12T18:10:54.505Z,22.27
2019-05-12T18:13:28.220Z,21.52
2019-05-12T18:16:02.785Z,21.60
2019-05-12T18:18:37.935Z,21.53
2019-05-12T18:21:07.147Z,26.48
2019-05-12T18:23:39.303Z,20.50
2019-05-12T18:26:14.872Z,21.02
2019-05-12T18:28:44.909Z,21.00
2019-05-12T18:31:17.166Z,27.10
2019-05-12T18:33:53.831Z,20.15
2019-05-12T18:36:23.654Z,20.00
2019-05-12T18:39:04.429Z,19.07
2019-05-12T18:41:29.747Z,21.17
2019-05-12T18:44:04.280Z,20.23
2019-05-12T18:46:44.708Z,19.60
2019-05-12T18:49:12.217Z,22.52
2019-05-12T18:51:43.566Z,20.50
2019-05-12T18:54:16.144Z,20.52
2019-05-12T18:56:52.600Z,20.05
2019-05-12T18:59:27.901Z,20.32
2019-05-12T19:01:58.412Z,20.25
2019-05-12T19:04:33.941Z,20.50
2019-05-12T19:07:04.378Z,21.60
2019-05-12T19:09:36.738Z,22.17
2019-05-12T19:12:16.196Z,20.90
2019-05-12T19:14:44.316Z,29.65
2019-05-12T19:17:16.509Z,21.77
2019-05-12T19:19:52.049Z,21.27
2019-05-12T19:22:24.333Z,20.40
2019-05-12T19:24:59.966Z,20.97
2019-05-12T19:27:30.436Z,20.37
2019-05-12T19:30:04.285Z,22.37
2019-05-12T19:32:37.546Z,20.97
2019-05-12T19:35:15.874Z,21.48
2019-05-12T19:37:45.290Z,24.82
2019-05-12T19:40:17.802Z,21.48
2019-05-12T19:42:53.835Z,19.92
2019-05-12T19:45:24.870Z,20.30
2019-05-12T19:47:57.358Z,19.73
2019-05-12T19:50:29.504Z,19.65
2019-05-12T19:53:03.990Z,19.07
2019-05-12T19:55:35.336Z,18.85
2019-05-12T19:58:10.882Z,32.70
2019-05-12T20:00:43.941Z,24.67
2019-05-12T20:03:16.205Z,21.05
2019-05-12T20:05:48.476Z,19.73
2019-05-12T20:08:20.759Z,19.92
2019-05-12T20:10:54.095Z,18.92
2019-05-12T20:13:29.706Z,19.10
2019-05-12T20:16:00.666Z,20.10
2019-05-12T20:18:36.050Z,19.80
2019-05-12T20:21:06.862Z,23.35
2019-05-12T20:23:39.104Z,19.05
2019-05-12T20:26:11.647Z,20.90
2019-05-12T20:28:50.089Z,18.87
2019-05-12T20:31:17.577Z,20.43
2019-05-12T20:33:49.915Z,20.80
2019-05-12T20:36:26.055Z,18.75
2019-05-12T20:38:55.804Z,27.80
2019-05-12T20:41:28.032Z,19.65
2019-05-12T20:44:00.184Z,19.07
2019-05-12T20:46:34.002Z,21.30
2019-05-12T20:49:09.701Z,19.65
2019-05-12T20:51:39.685Z,19.97
2019-05-12T20:54:16.664Z,20.05
2019-05-12T20:56:45.498Z,18.98
2019-05-12T20:59:21.931Z,20.15
2019-05-12T21:01:54.154Z,19.62
2019-05-12T21:04:31.093Z,19.07
2019-05-12T21:07:00.055Z,19.95
2019-05-12T21:09:34.943Z,19.60
2019-05-12T21:12:06.771Z,23.20
2019-05-12T21:14:42.535Z,25.00
2019-05-12T21:17:15.947Z,27.75
2019-05-12T21:19:55.677Z,23.57
2019-05-12T21:22:19.909Z,21.25
2019-05-12T21:24:53.472Z,40.63
2019-05-12T21:27:25.441Z,26.73
2019-05-12T21:30:00.660Z,33.48
2019-05-12T21:32:31.261Z,30.20
2019-05-12T21:35:15.873Z,25.40
2019-05-12T21:37:45.202Z,27.10
2019-05-12T21:40:10.507Z,28.32
2019-05-12T21:42:44.734Z,32.23
2019-05-12T21:45:20.355Z,34.73
2019-05-12T21:47:49.791Z,25.88
2019-05-12T21:50:24.107Z,24.75
2019-05-12T21:52:59.471Z,24.82
2019-05-12T21:55:29.255Z,39.48
2019-05-12T21:58:06.866Z,38.43
2019-05-12T22:00:38.193Z,33.13
2019-05-12T22:03:15.580Z,29.00
2019-05-12T22:05:51.973Z,32.10
2019-05-12T22:08:25.313Z,36.45
2019-05-12T22:11:00.932Z,40.27
2019-05-12T22:13:30.273Z,28.23
2019-05-12T22:16:03.916Z,27.25
2019-05-12T22:18:36.114Z,26.93
2019-05-12T22:21:08.217Z,26.50
2019-05-12T22:23:44.501Z,26.87
2019-05-12T22:26:14.681Z,28.77
2019-05-12T22:28:50.709Z,33.90
2019-05-12T22:31:20.582Z,41.83
2019-05-12T22:33:56.129Z,30.05
2019-05-12T22:36:30.134Z,26.27
2019-05-12T22:39:06.709Z,26.07
2019-05-12T22:41:41.412Z,26.52
2019-05-12T22:44:18.699Z,26.60
2019-05-12T22:46:46.196Z,26.80
2019-05-12T22:49:21.073Z,26.60
2019-05-12T22:51:54.730Z,26.30
2019-05-12T22:54:25.738Z,25.82
2019-05-12T22:56:58.962Z,27.00
2019-05-12T22:59:32.053Z,26.97
2019-05-12T23:02:04.739Z,26.57
2019-05-12T23:04:40.362Z,26.53
2019-05-12T23:07:10.884Z,26.17
2019-05-12T23:09:43.575Z,24.82
2019-05-12T23:12:19.887Z,25.37
2019-05-12T23:14:54.159Z,23.92
2019-05-12T23:17:24.634Z,25.65
2019-05-12T23:19:58.243Z,24.15
2019-05-12T23:22:35.060Z,24.50
2019-05-12T23:25:04.297Z,23.33
2019-05-12T23:27:36.611Z,23.52
2019-05-12T23:30:11.154Z,23.85
2019-05-12T23:32:51.365Z,23.98
2019-05-12T23:35:16.740Z,25.20
2019-05-12T23:37:48.875Z,24.80
2019-05-12T23:40:23.447Z,23.60
2019-05-12T23:42:55.060Z,22.45
2019-05-12T23:45:27.221Z,22.85
2019-05-12T23:47:59.343Z,24.32
2019-05-12T23:50:31.933Z,22.85
2019-05-12T23:53:04.176Z,23.18
2019-05-12T23:55:36.419Z,24.27
2019-05-12T23:58:08.643Z,24.18
